METAR Data
IDs: Format: Raw Decoded Include TAF

Data at: 0254 UTC 25 Feb 2021

KNTD 250252Z 00000KT 9SM FEW002 11/09 A3000 RMK AO2 SLP159 T01110094 56002 VISNO N $